createdAt,value
2022-11-18T00:03:52.237Z,34.71
2022-11-18T00:08:53.754Z,34.59
2022-11-18T00:14:13.539Z,34.56
2022-11-18T00:19:15.417Z,34.61
2022-11-18T00:24:17.127Z,34.60
2022-11-18T00:29:18.713Z,34.50
2022-11-18T00:34:20.347Z,34.56
2022-11-18T00:39:22.027Z,34.61
2022-11-18T00:44:23.474Z,34.55
2022-11-18T00:49:24.830Z,34.46
2022-11-18T00:54:26.227Z,34.87
2022-11-18T00:59:27.600Z,34.80
2022-11-18T01:04:29.040Z,34.78
2022-11-18T01:09:30.452Z,34.65
2022-11-18T01:14:31.867Z,34.74
2022-11-18T01:19:33.268Z,34.72
2022-11-18T01:24:34.732Z,34.77
2022-11-18T01:29:36.283Z,34.72
2022-11-18T01:34:37.647Z,34.74
2022-11-18T01:39:39.035Z,34.85
2022-11-18T01:45:05.116Z,34.67
2022-11-18T01:50:07.092Z,34.88
2022-11-18T01:55:14.039Z,34.89
2022-11-18T02:00:15.548Z,34.92
2022-11-18T02:05:16.907Z,34.96
2022-11-18T02:10:22.683Z,34.80
2022-11-18T02:15:33.521Z,34.87
2022-11-18T02:20:37.295Z,34.94
2022-11-18T02:26:05.751Z,34.62
2022-11-18T02:31:11.604Z,35.12
2022-11-18T02:36:15.831Z,35.01
2022-11-18T02:41:19.699Z,34.86
2022-11-18T02:46:25.431Z,34.76
2022-11-18T02:51:28.351Z,34.88
2022-11-18T02:56:29.743Z,35.05
2022-11-18T03:01:32.399Z,34.83
2022-11-18T03:06:38.365Z,35.04
2022-11-18T03:11:45.643Z,35.00
2022-11-18T03:17:05.715Z,34.77
2022-11-18T03:22:23.815Z,34.90
2022-11-18T03:27:43.763Z,34.94
2022-11-18T03:32:48.204Z,35.14
2022-11-18T03:37:50.755Z,34.87
2022-11-18T03:42:54.533Z,34.63
2022-11-18T03:47:59.687Z,34.80
2022-11-18T03:53:01.331Z,34.85
2022-11-18T03:58:32.324Z,34.68
2022-11-18T04:03:33.692Z,34.84
2022-11-18T04:08:36.691Z,34.87
2022-11-18T04:13:38.122Z,34.69
2022-11-18T04:18:39.480Z,34.96
2022-11-18T04:23:40.851Z,35.09
2022-11-18T04:28:42.207Z,34.99
2022-11-18T04:33:43.570Z,34.97
2022-11-18T04:38:44.929Z,34.85
2022-11-18T04:43:46.294Z,34.96
2022-11-18T04:48:47.655Z,35.01
2022-11-18T04:53:49.026Z,35.11
2022-11-18T04:58:50.432Z,35.12
2022-11-18T05:03:51.809Z,35.05
2022-11-18T05:08:53.209Z,35.09
2022-11-18T05:13:54.567Z,35.01
2022-11-18T05:18:55.935Z,34.64
2022-11-18T05:23:59.263Z,34.82
2022-11-18T05:29:00.679Z,34.63
2022-11-18T05:34:02.116Z,34.47
2022-11-18T05:39:03.655Z,34.52
2022-11-18T05:44:05.118Z,34.54
2022-11-18T05:49:07.523Z,34.38
2022-11-18T05:54:09.331Z,34.08
2022-11-18T05:59:10.780Z,34.10
2022-11-18T06:04:18.402Z,34.06
2022-11-18T06:09:20.976Z,33.96
2022-11-18T06:14:25.427Z,34.03
2022-11-18T06:19:26.793Z,34.16
2022-11-18T06:24:28.157Z,33.76
2022-11-18T06:29:30.113Z,34.07
2022-11-18T06:34:33.621Z,34.06
2022-11-18T06:39:38.166Z,33.71
2022-11-18T06:44:39.596Z,33.97
2022-11-18T06:49:41.043Z,33.82
2022-11-18T06:54:42.401Z,33.89
2022-11-18T06:59:44.102Z,34.25
2022-11-18T07:04:45.700Z,33.85
2022-11-18T07:09:47.054Z,34.00
2022-11-18T07:14:48.408Z,34.12
2022-11-18T07:19:49.771Z,34.23
2022-11-18T07:24:51.133Z,34.14
2022-11-18T07:29:52.531Z,32.91
2022-11-18T07:34:53.899Z,34.01
2022-11-18T07:39:55.322Z,33.72
2022-11-18T07:44:56.683Z,33.46
2022-11-18T07:49:58.056Z,33.75
2022-11-18T07:54:59.439Z,33.83
2022-11-18T08:00:00.881Z,33.47
2022-11-18T08:05:02.300Z,33.57
2022-11-18T08:10:03.908Z,32.76
2022-11-18T08:15:05.601Z,32.84
2022-11-18T08:20:07.196Z,33.26
2022-11-18T08:25:08.692Z,32.60
2022-11-18T08:30:10.691Z,33.03
2022-11-18T08:35:12.097Z,33.15
2022-11-18T08:40:13.615Z,32.03
2022-11-18T08:45:14.985Z,32.80
2022-11-18T08:50:16.500Z,32.79
2022-11-18T08:55:17.872Z,32.58
2022-11-18T09:00:19.660Z,32.57
2022-11-18T09:05:21.077Z,31.71
2022-11-18T09:10:22.456Z,32.54
2022-11-18T09:15:24.043Z,31.68
2022-11-18T09:20:25.432Z,32.47
2022-11-18T09:25:26.819Z,32.25
2022-11-18T09:30:28.187Z,31.47
2022-11-18T09:35:29.557Z,31.91
2022-11-18T09:40:30.921Z,32.11
2022-11-18T09:45:35.075Z,31.95
2022-11-18T09:50:51.984Z,31.30
2022-11-18T09:55:53.464Z,31.54
2022-11-18T10:00:54.904Z,31.60
2022-11-18T10:06:09.280Z,31.83
2022-11-18T10:11:15.307Z,31.05
2022-11-18T10:16:39.232Z,31.92
2022-11-18T10:22:13.863Z,31.51
2022-11-18T10:27:18.348Z,30.61
2022-11-18T10:32:19.906Z,30.91
2022-11-18T10:38:00.349Z,31.21
2022-11-18T10:42:52.860Z,30.29
2022-11-18T10:48:15.768Z,30.46
2022-11-18T10:53:34.190Z,31.13
2022-11-18T10:58:39.322Z,31.33
2022-11-18T11:03:43.884Z,30.97
2022-11-18T11:09:12.144Z,30.48
2022-11-18T11:14:15.267Z,29.89
2022-11-18T11:19:18.604Z,30.34
2022-11-18T11:24:20.323Z,30.73
2022-11-18T11:29:34.844Z,30.11
2022-11-18T11:34:59.820Z,29.94
2022-11-18T11:40:16.524Z,30.39
2022-11-18T11:45:33.039Z,30.79
2022-11-18T11:51:01.928Z,29.66
2022-11-18T11:56:19.616Z,30.82
2022-11-18T12:01:26.503Z,29.84
2022-11-18T12:06:27.937Z,30.53
2022-11-18T12:11:40.443Z,30.73
2022-11-18T12:16:47.656Z,30.52
2022-11-18T12:21:53.279Z,29.34
2022-11-18T12:26:54.675Z,30.04
2022-11-18T12:31:59.475Z,29.71
2022-11-18T12:37:27.044Z,30.05
2022-11-18T12:43:02.391Z,29.02
2022-11-18T12:48:03.832Z,29.27
2022-11-18T12:53:05.203Z,30.11
2022-11-18T12:58:21.500Z,29.28
2022-11-18T13:03:28.781Z,30.20
2022-11-18T13:08:30.364Z,29.86
2022-11-18T13:13:32.482Z,29.53
2022-11-18T13:18:34.487Z,29.18
2022-11-18T13:24:00.422Z,29.18
2022-11-18T13:29:20.330Z,29.91
2022-11-18T13:34:23.803Z,29.82
2022-11-18T13:39:31.909Z,29.03
2022-11-18T13:44:34.768Z,29.71
2022-11-18T13:49:49.898Z,29.92
2022-11-18T13:54:52.239Z,29.88
2022-11-18T13:59:54.850Z,29.37
2022-11-18T14:04:57.544Z,29.26
2022-11-18T14:10:02.747Z,28.93
2022-11-18T14:15:29.385Z,29.74
2022-11-18T14:20:30.796Z,29.73
2022-11-18T14:25:33.896Z,29.50
2022-11-18T14:30:36.691Z,28.66
2022-11-18T14:35:40.237Z,29.61
2022-11-18T14:40:41.604Z,27.55
2022-11-18T14:45:42.978Z,29.07
2022-11-18T14:50:44.495Z,29.05
2022-11-18T14:55:47.440Z,29.40
2022-11-18T15:00:48.928Z,29.40
2022-11-18T15:05:50.325Z,29.30
2022-11-18T15:10:51.725Z,29.46
2022-11-18T15:15:53.100Z,29.26
2022-11-18T15:20:54.480Z,29.32
2022-11-18T15:25:55.867Z,29.41
2022-11-18T15:30:57.231Z,29.51
2022-11-18T15:35:58.603Z,29.31
2022-11-18T15:40:59.985Z,29.33
2022-11-18T15:46:01.359Z,29.56
2022-11-18T15:51:05.330Z,29.31
2022-11-18T15:56:19.013Z,29.20
2022-11-18T16:01:20.491Z,29.31
2022-11-18T16:06:22.252Z,29.00
2022-11-18T16:11:42.493Z,29.46
2022-11-18T16:16:44.641Z,29.08
2022-11-18T16:21:47.455Z,28.97
2022-11-18T16:26:48.824Z,29.04
2022-11-18T16:31:53.999Z,29.06
2022-11-18T16:36:56.919Z,29.00
2022-11-18T16:42:06.742Z,28.70
2022-11-18T16:47:14.367Z,28.92
2022-11-18T16:52:16.432Z,28.57
2022-11-18T16:57:17.798Z,29.00
2022-11-18T17:02:21.759Z,28.82
2022-11-18T17:07:23.277Z,29.07
2022-11-18T17:12:24.772Z,28.94
2022-11-18T17:17:26.143Z,28.79
2022-11-18T17:22:27.503Z,29.00
2022-11-18T17:27:28.868Z,28.80
2022-11-18T17:32:30.235Z,28.85
2022-11-18T17:37:31.633Z,28.62
2022-11-18T17:42:33.011Z,28.67
2022-11-18T17:47:34.376Z,28.62
2022-11-18T17:52:35.830Z,28.62
2022-11-18T17:57:37.196Z,28.53
2022-11-18T18:02:38.580Z,28.53
2022-11-18T18:07:39.994Z,28.33
2022-11-18T18:13:00.071Z,28.01
2022-11-18T18:18:01.616Z,28.31
2022-11-18T18:23:02.979Z,28.25
2022-11-18T18:28:06.038Z,28.46
2022-11-18T18:33:07.399Z,28.48
2022-11-18T18:38:08.768Z,28.20
2022-11-18T18:43:10.131Z,28.16
2022-11-18T18:48:11.515Z,28.23
2022-11-18T18:53:12.892Z,28.21
2022-11-18T18:58:14.255Z,28.23
2022-11-18T19:03:15.840Z,28.00
2022-11-18T19:08:17.327Z,28.00
2022-11-18T19:13:18.718Z,28.21
2022-11-18T19:18:23.257Z,27.97
2022-11-18T19:23:25.868Z,27.78
2022-11-18T19:28:27.331Z,27.46
2022-11-18T19:33:28.702Z,27.78
2022-11-18T19:38:30.171Z,27.33
2022-11-18T19:43:31.633Z,27.49
2022-11-18T19:48:33.858Z,27.28
2022-11-18T19:53:35.532Z,27.52
2022-11-18T19:58:37.617Z,27.28
2022-11-18T20:03:39.348Z,27.28
2022-11-18T20:08:41.019Z,27.31
2022-11-18T20:13:42.784Z,27.37
2022-11-18T20:18:44.524Z,27.46
2022-11-18T20:23:54.403Z,27.43
2022-11-18T20:28:57.709Z,27.29
2022-11-18T20:33:59.318Z,27.42
2022-11-18T20:39:02.682Z,27.19
2022-11-18T20:44:04.232Z,27.33
2022-11-18T20:49:05.615Z,27.14
2022-11-18T20:54:09.056Z,27.19
2022-11-18T20:59:10.448Z,27.09
2022-11-18T21:04:12.120Z,27.37
2022-11-18T21:09:14.292Z,27.06
2022-11-18T21:14:24.005Z,27.05
2022-11-18T21:19:27.014Z,27.17
2022-11-18T21:24:29.833Z,27.01
2022-11-18T21:29:32.132Z,27.15
2022-11-18T21:34:33.644Z,26.97
2022-11-18T21:39:35.048Z,27.13
2022-11-18T21:44:36.430Z,27.09
2022-11-18T21:49:37.830Z,26.95
2022-11-18T21:54:39.235Z,27.21
2022-11-18T21:59:40.644Z,27.13
2022-11-18T22:04:53.888Z,26.73
2022-11-18T22:09:55.326Z,27.22
2022-11-18T22:14:56.738Z,27.29
2022-11-18T22:19:58.147Z,26.86
2022-11-18T22:24:59.508Z,26.86
2022-11-18T22:30:01.327Z,27.11
2022-11-18T22:35:02.695Z,26.71
2022-11-18T22:40:04.379Z,26.84
2022-11-18T22:45:06.341Z,26.74
2022-11-18T22:50:08.097Z,26.88
2022-11-18T22:55:09.781Z,26.43
2022-11-18T23:00:11.712Z,27.02
2022-11-18T23:05:13.078Z,26.62
2022-11-18T23:10:14.491Z,26.86
2022-11-18T23:15:15.934Z,27.01
2022-11-18T23:20:17.336Z,26.98
2022-11-18T23:25:19.007Z,26.97
2022-11-18T23:30:20.391Z,26.87
2022-11-18T23:35:21.871Z,26.77
2022-11-18T23:40:23.291Z,26.77
2022-11-18T23:45:24.695Z,26.72
2022-11-18T23:50:26.127Z,26.86
2022-11-18T23:55:27.491Z,26.55
